createdAt,value
2023-05-07T00:00:19.142Z,1.93
2023-05-07T00:02:47.108Z,1.70
2023-05-07T00:05:14.989Z,1.60
2023-05-07T00:07:42.266Z,1.83
2023-05-07T00:10:09.953Z,1.60
2023-05-07T00:12:37.236Z,1.53
2023-05-07T00:15:05.002Z,2.00
2023-05-07T00:17:34.285Z,1.77
2023-05-07T00:20:01.424Z,1.67
2023-05-07T00:22:31.268Z,1.90
2023-05-07T00:24:58.278Z,1.80
2023-05-07T00:27:26.304Z,1.60
2023-05-07T00:29:53.576Z,1.43
2023-05-07T00:32:20.707Z,1.83
2023-05-07T00:34:47.967Z,1.60
2023-05-07T00:37:15.272Z,1.60
2023-05-07T00:39:42.499Z,1.90
2023-05-07T00:42:09.954Z,1.73
2023-05-07T00:44:37.030Z,1.80
2023-05-07T00:47:06.026Z,1.57
2023-05-07T00:49:43.135Z,1.80
2023-05-07T00:52:14.208Z,1.67
2023-05-07T00:54:42.772Z,1.87
2023-05-07T00:57:13.341Z,2.07
2023-05-07T00:59:41.819Z,1.80
2023-05-07T01:02:09.196Z,1.80
2023-05-07T01:04:36.979Z,1.77
2023-05-07T01:07:25.511Z,1.90
2023-05-07T01:10:13.398Z,1.87
2023-05-07T01:13:02.250Z,2.17
2023-05-07T01:15:49.674Z,2.20
2023-05-07T01:18:37.025Z,1.67
2023-05-07T01:21:26.390Z,2.10
2023-05-07T01:24:18.260Z,1.57
2023-05-07T01:27:05.795Z,1.90
2023-05-07T01:29:54.792Z,1.57
2023-05-07T01:32:48.881Z,2.17
2023-05-07T01:35:40.772Z,1.83
2023-05-07T01:38:29.310Z,1.83
2023-05-07T01:41:16.950Z,1.60
2023-05-07T01:44:04.547Z,1.70
2023-05-07T01:46:53.856Z,1.73
2023-05-07T01:49:41.260Z,2.20
2023-05-07T01:52:28.460Z,1.53
2023-05-07T01:55:15.530Z,2.03
2023-05-07T01:58:02.618Z,2.00
2023-05-07T02:00:49.894Z,2.60
2023-05-07T02:03:37.012Z,1.87
2023-05-07T02:06:30.891Z,1.87
2023-05-07T02:09:23.529Z,1.63
2023-05-07T02:12:12.054Z,1.63
2023-05-07T02:14:59.112Z,1.90
2023-05-07T02:17:46.427Z,1.87
2023-05-07T02:20:33.680Z,2.13
2023-05-07T02:23:40.746Z,1.93
2023-05-07T02:26:28.161Z,1.60
2023-05-07T02:29:15.430Z,1.70
2023-05-07T02:32:02.789Z,1.80
2023-05-07T02:34:49.918Z,2.17
2023-05-07T02:37:36.895Z,1.53
2023-05-07T02:40:24.724Z,1.70
2023-05-07T02:43:11.789Z,2.20
2023-05-07T02:46:02.897Z,1.70
2023-05-07T02:48:50.898Z,1.67
2023-05-07T02:51:42.400Z,1.40
2023-05-07T02:54:33.693Z,1.80
2023-05-07T02:57:20.753Z,1.90
2023-05-07T03:00:07.956Z,1.77
2023-05-07T03:02:55.270Z,1.87
2023-05-07T03:05:42.459Z,1.70
2023-05-07T03:08:30.594Z,1.70
2023-05-07T03:11:17.740Z,1.63
2023-05-07T03:14:04.671Z,1.60
2023-05-07T03:16:52.304Z,1.80
2023-05-07T03:19:39.737Z,1.53
2023-05-07T03:22:27.351Z,1.90
2023-05-07T03:25:14.455Z,1.70
2023-05-07T03:28:01.612Z,1.70
2023-05-07T03:30:57.718Z,1.60
2023-05-07T03:33:44.903Z,1.60
2023-05-07T03:36:31.921Z,1.53
2023-05-07T03:39:22.706Z,1.80
2023-05-07T03:42:10.045Z,2.00
2023-05-07T03:44:58.282Z,1.60
2023-05-07T03:47:45.530Z,1.70
2023-05-07T03:50:37.202Z,1.80
2023-05-07T03:53:24.973Z,1.60
2023-05-07T03:56:12.617Z,1.60
2023-05-07T03:59:01.422Z,2.07
2023-05-07T04:01:48.713Z,1.63
2023-05-07T04:04:38.365Z,1.90
2023-05-07T04:07:26.058Z,2.17
2023-05-07T04:10:13.412Z,2.20
2023-05-07T04:13:03.814Z,1.90
2023-05-07T04:15:51.316Z,1.87
2023-05-07T04:18:39.916Z,2.00
2023-05-07T04:21:27.171Z,2.60
2023-05-07T04:24:14.810Z,2.80
2023-05-07T04:27:01.873Z,2.37
2023-05-07T04:29:49.582Z,2.37
2023-05-07T04:32:38.850Z,2.93
2023-05-07T04:35:27.148Z,2.20
2023-05-07T04:38:14.783Z,3.07
2023-05-07T04:41:03.614Z,2.90
2023-05-07T04:43:50.872Z,2.53
2023-05-07T04:46:40.345Z,2.30
2023-05-07T04:49:27.581Z,2.47
2023-05-07T04:52:15.937Z,2.70
2023-05-07T04:55:03.448Z,2.63
2023-05-07T04:57:55.630Z,2.53
2023-05-07T05:00:43.952Z,2.57
2023-05-07T05:03:31.428Z,2.70
2023-05-07T05:06:19.000Z,2.37
2023-05-07T05:09:06.098Z,2.13
2023-05-07T05:11:54.425Z,2.00
2023-05-07T05:14:42.563Z,2.37
2023-05-07T05:17:29.962Z,2.73
2023-05-07T05:20:17.407Z,2.30
2023-05-07T05:23:04.765Z,2.57
2023-05-07T05:25:52.347Z,2.30
2023-05-07T05:28:39.684Z,2.40
2023-05-07T05:31:27.224Z,2.50
2023-05-07T05:34:14.300Z,2.57
2023-05-07T05:37:02.840Z,2.40
2023-05-07T05:39:50.009Z,2.07
2023-05-07T05:42:37.205Z,2.00
2023-05-07T05:45:25.212Z,2.00
2023-05-07T05:48:12.505Z,2.10
2023-05-07T05:50:59.773Z,2.33
2023-05-07T05:53:46.987Z,2.30
2023-05-07T05:56:34.547Z,2.43
2023-05-07T05:59:22.365Z,2.37
2023-05-07T06:02:10.033Z,1.63
2023-05-07T06:04:57.299Z,1.90
2023-05-07T06:07:44.328Z,2.17
2023-05-07T06:10:31.672Z,1.83
2023-05-07T06:13:18.967Z,1.97
2023-05-07T06:16:06.353Z,2.30
2023-05-07T06:18:53.495Z,1.70
2023-05-07T06:21:40.670Z,2.03
2023-05-07T06:24:28.041Z,2.03
2023-05-07T06:27:15.702Z,1.80
2023-05-07T06:30:05.913Z,1.50
2023-05-07T06:32:53.222Z,1.77
2023-05-07T06:35:40.723Z,1.67
2023-05-07T06:38:27.769Z,1.70
2023-05-07T06:41:14.945Z,1.70
2023-05-07T06:44:02.872Z,1.90
2023-05-07T06:46:53.867Z,1.60
2023-05-07T06:49:41.133Z,1.60
2023-05-07T06:52:28.363Z,2.13
2023-05-07T06:55:16.380Z,1.70
2023-05-07T06:58:03.584Z,1.40
2023-05-07T07:00:50.934Z,1.63
2023-05-07T07:03:38.153Z,1.50
2023-05-07T07:06:25.931Z,1.57
2023-05-07T07:09:14.037Z,1.57
2023-05-07T07:12:01.915Z,1.60
2023-05-07T07:14:49.939Z,1.40
2023-05-07T07:17:37.148Z,1.30
2023-05-07T07:20:24.742Z,1.40
2023-05-07T07:23:12.021Z,1.33
2023-05-07T07:25:59.139Z,1.57
2023-05-07T07:28:48.420Z,1.50
2023-05-07T07:31:39.182Z,1.57
2023-05-07T07:34:26.242Z,1.60
2023-05-07T07:37:13.566Z,1.20
2023-05-07T07:40:00.447Z,1.67
2023-05-07T07:42:47.578Z,1.40
2023-05-07T07:45:34.599Z,1.60
2023-05-07T07:48:22.452Z,1.10
2023-05-07T07:51:10.734Z,1.43
2023-05-07T07:53:59.747Z,1.60
2023-05-07T07:56:47.358Z,1.40
2023-05-07T07:59:35.587Z,1.33
2023-05-07T08:02:22.746Z,1.57
2023-05-07T08:05:11.161Z,1.57
2023-05-07T08:07:58.264Z,1.50
2023-05-07T08:10:49.753Z,1.50
2023-05-07T08:13:42.503Z,1.27
2023-05-07T08:16:31.070Z,1.67
2023-05-07T08:19:19.465Z,1.37
2023-05-07T08:22:06.936Z,1.40
2023-05-07T08:24:54.931Z,1.30
2023-05-07T08:27:42.499Z,1.37
2023-05-07T08:30:30.286Z,1.17
2023-05-07T08:33:17.610Z,1.37
2023-05-07T08:36:04.709Z,1.50
2023-05-07T08:38:52.756Z,1.63
2023-05-07T08:41:40.027Z,2.87
2023-05-07T08:44:32.926Z,2.77
2023-05-07T08:47:23.207Z,2.43
2023-05-07T08:50:12.816Z,2.40
2023-05-07T08:53:01.343Z,2.10
2023-05-07T08:55:50.031Z,1.60
2023-05-07T08:58:37.539Z,1.60
2023-05-07T09:01:30.454Z,1.50
2023-05-07T09:04:18.461Z,1.10
2023-05-07T09:07:05.930Z,1.40
2023-05-07T09:09:56.387Z,1.03
2023-05-07T09:12:43.788Z,1.30
2023-05-07T09:15:33.244Z,1.27
2023-05-07T09:18:24.530Z,1.50
2023-05-07T09:21:11.651Z,1.47
2023-05-07T09:23:59.656Z,1.27
2023-05-07T09:26:54.331Z,1.57
2023-05-07T09:29:41.776Z,1.50
2023-05-07T09:32:29.591Z,1.60
2023-05-07T09:35:19.657Z,1.47
2023-05-07T09:38:11.876Z,1.30
2023-05-07T09:40:59.282Z,1.30
2023-05-07T09:43:46.466Z,1.30
2023-05-07T09:46:36.513Z,1.30
2023-05-07T09:49:28.414Z,1.20
2023-05-07T09:52:23.013Z,1.30
2023-05-07T09:55:14.443Z,1.23
2023-05-07T09:58:03.937Z,1.20
2023-05-07T10:00:52.555Z,1.40
2023-05-07T10:03:40.993Z,1.40
2023-05-07T10:06:30.139Z,1.30
2023-05-07T10:09:18.147Z,1.20
2023-05-07T10:12:06.226Z,1.03
2023-05-07T10:14:55.222Z,1.33
2023-05-07T10:17:44.659Z,1.20
2023-05-07T10:20:33.563Z,1.27
2023-05-07T10:23:23.994Z,1.33
2023-05-07T10:26:13.640Z,1.10
2023-05-07T10:29:04.250Z,1.30
2023-05-07T10:32:16.804Z,1.40
2023-05-07T10:35:08.480Z,1.20
2023-05-07T10:37:56.095Z,1.40
2023-05-07T10:40:47.792Z,1.40
2023-05-07T10:43:37.941Z,1.30
2023-05-07T10:46:50.961Z,1.17
2023-05-07T10:49:41.703Z,1.40
2023-05-07T10:52:37.674Z,1.27
2023-05-07T10:55:38.038Z,1.03
2023-05-07T10:58:42.640Z,1.03
2023-05-07T11:02:11.813Z,1.30
2023-05-07T11:05:44.969Z,1.37
2023-05-07T11:08:38.811Z,1.50
2023-05-07T11:11:27.169Z,1.20
2023-05-07T11:14:21.610Z,1.10
2023-05-07T11:17:23.902Z,1.30
2023-05-07T11:20:18.127Z,1.23
2023-05-07T11:23:15.264Z,1.07
2023-05-07T11:26:21.538Z,1.30
2023-05-07T11:29:09.607Z,1.40
2023-05-07T11:31:58.247Z,1.20
2023-05-07T11:34:49.926Z,1.57
2023-05-07T11:37:41.070Z,1.47
2023-05-07T11:40:30.002Z,1.30
2023-05-07T11:43:17.240Z,1.50
2023-05-07T11:46:05.515Z,1.77
2023-05-07T11:48:53.342Z,1.33
2023-05-07T11:51:49.673Z,1.40
2023-05-07T11:54:37.170Z,1.47
2023-05-07T11:57:25.140Z,1.30
2023-05-07T12:00:16.261Z,1.40
2023-05-07T12:03:03.833Z,1.40
2023-05-07T12:05:51.474Z,1.40
2023-05-07T12:08:39.861Z,1.23
2023-05-07T12:11:33.738Z,1.20
2023-05-07T12:14:20.835Z,1.50
2023-05-07T12:17:08.422Z,1.40
2023-05-07T12:19:56.885Z,1.30
2023-05-07T12:22:44.402Z,1.40
2023-05-07T12:25:31.448Z,1.70
2023-05-07T12:28:18.552Z,1.30
2023-05-07T12:31:07.684Z,1.33
2023-05-07T12:33:56.069Z,1.43
2023-05-07T12:36:43.091Z,1.70
2023-05-07T12:39:30.510Z,1.40
2023-05-07T12:42:22.165Z,1.27
2023-05-07T12:45:09.300Z,1.40
2023-05-07T12:47:56.878Z,1.13
2023-05-07T12:50:44.212Z,1.33
2023-05-07T12:53:32.556Z,1.20
2023-05-07T12:56:20.462Z,1.23
2023-05-07T12:59:09.939Z,1.30
2023-05-07T13:01:57.062Z,1.43
2023-05-07T13:04:45.899Z,1.30
2023-05-07T13:07:33.004Z,1.13
2023-05-07T13:10:20.004Z,1.33
2023-05-07T13:13:06.887Z,1.37
2023-05-07T13:15:53.909Z,1.37
2023-05-07T13:18:41.152Z,1.30
2023-05-07T13:21:28.514Z,1.53
2023-05-07T13:24:15.465Z,1.57
2023-05-07T13:27:02.529Z,1.57
2023-05-07T13:29:49.856Z,1.47
2023-05-07T13:32:36.948Z,1.40
2023-05-07T13:35:24.209Z,1.30
2023-05-07T13:38:11.182Z,1.40
2023-05-07T13:40:58.226Z,1.10
2023-05-07T13:43:46.196Z,1.40
2023-05-07T13:46:33.321Z,1.40
2023-05-07T13:49:20.446Z,1.10
2023-05-07T13:52:07.834Z,1.30
2023-05-07T13:54:54.948Z,1.57
2023-05-07T13:57:41.907Z,1.27
2023-05-07T14:00:29.624Z,1.30
2023-05-07T14:03:17.927Z,1.30
2023-05-07T14:06:05.066Z,1.27
2023-05-07T14:08:52.211Z,1.10
2023-05-07T14:11:39.420Z,1.30
2023-05-07T14:14:26.749Z,1.70
2023-05-07T14:17:13.819Z,1.43
2023-05-07T14:20:00.798Z,1.43
2023-05-07T14:22:47.787Z,1.30
2023-05-07T14:25:34.825Z,1.50
2023-05-07T14:28:21.902Z,1.40
2023-05-07T14:31:09.219Z,1.60
2023-05-07T14:33:56.413Z,1.40
2023-05-07T14:36:43.509Z,1.67
2023-05-07T14:39:30.715Z,1.60
2023-05-07T14:42:18.677Z,1.57
2023-05-07T14:45:06.665Z,1.57
2023-05-07T14:47:53.907Z,1.30
2023-05-07T14:50:41.153Z,1.60
2023-05-07T14:53:08.438Z,1.73
2023-05-07T14:55:36.081Z,1.53
2023-05-07T14:58:23.166Z,1.73
2023-05-07T15:01:10.297Z,1.40
2023-05-07T15:03:57.424Z,1.47
2023-05-07T15:06:44.551Z,1.50
2023-05-07T15:09:31.683Z,1.50
2023-05-07T15:12:18.849Z,1.43
2023-05-07T15:15:05.925Z,1.67
2023-05-07T15:17:52.840Z,1.50
2023-05-07T15:20:40.118Z,1.87
2023-05-07T15:23:28.458Z,2.00
2023-05-07T15:26:15.606Z,1.90
2023-05-07T15:29:02.660Z,1.70
2023-05-07T15:31:49.831Z,1.50
2023-05-07T15:34:36.738Z,1.67
2023-05-07T15:37:23.763Z,1.50
2023-05-07T15:40:10.970Z,1.60
2023-05-07T15:42:58.206Z,1.50
2023-05-07T15:45:45.388Z,1.67
2023-05-07T15:48:32.588Z,1.87
2023-05-07T15:51:19.737Z,1.33
2023-05-07T15:54:07.270Z,1.60
2023-05-07T15:56:54.400Z,1.53
2023-05-07T15:59:41.611Z,1.80
2023-05-07T16:02:28.736Z,1.60
2023-05-07T16:05:15.994Z,1.70
2023-05-07T16:08:03.120Z,1.70
2023-05-07T16:10:51.171Z,1.40
2023-05-07T16:13:41.405Z,1.60
2023-05-07T16:16:28.426Z,1.90
2023-05-07T16:19:16.371Z,1.50
2023-05-07T16:22:03.380Z,1.73
2023-05-07T16:24:50.369Z,1.67
2023-05-07T16:27:37.592Z,1.63
2023-05-07T16:30:24.913Z,1.70
2023-05-07T16:33:11.941Z,1.50
2023-05-07T16:35:59.083Z,1.70
2023-05-07T16:38:46.720Z,1.90
2023-05-07T16:41:34.615Z,1.57
2023-05-07T16:44:21.770Z,1.57
2023-05-07T16:47:08.837Z,1.40
2023-05-07T16:49:55.883Z,1.73
2023-05-07T16:52:42.913Z,1.50
2023-05-07T16:55:30.131Z,1.53
2023-05-07T16:58:17.134Z,1.57
2023-05-07T17:01:04.239Z,1.60
2023-05-07T17:03:51.393Z,1.70
2023-05-07T17:06:38.571Z,1.70
2023-05-07T17:09:25.556Z,1.73
2023-05-07T17:12:12.619Z,1.90
2023-05-07T17:14:59.664Z,1.70
2023-05-07T17:17:46.696Z,1.70
2023-05-07T17:20:34.398Z,1.80
2023-05-07T17:23:21.423Z,1.80
2023-05-07T17:26:08.444Z,1.83
2023-05-07T17:28:59.187Z,1.70
2023-05-07T17:31:46.566Z,1.70
2023-05-07T17:34:35.136Z,1.83
2023-05-07T17:37:23.810Z,1.93
2023-05-07T17:40:11.307Z,1.80
2023-05-07T17:42:59.630Z,1.63
2023-05-07T17:45:46.859Z,1.50
2023-05-07T17:48:33.969Z,1.33
2023-05-07T17:51:22.309Z,1.87
2023-05-07T17:54:09.582Z,1.60
2023-05-07T17:56:58.332Z,1.60
2023-05-07T17:59:45.780Z,1.50
2023-05-07T18:02:32.801Z,2.73
2023-05-07T18:05:20.094Z,3.40
2023-05-07T18:08:07.028Z,1.83
2023-05-07T18:10:54.325Z,1.77
2023-05-07T18:13:41.558Z,1.83
2023-05-07T18:16:29.564Z,1.60
2023-05-07T18:19:16.603Z,2.17
2023-05-07T18:22:03.742Z,1.70
2023-05-07T18:24:50.826Z,1.70
2023-05-07T18:27:38.186Z,1.80
2023-05-07T18:30:25.986Z,1.50
2023-05-07T18:33:13.130Z,1.43
2023-05-07T18:36:00.196Z,1.50
2023-05-07T18:38:47.379Z,1.33
2023-05-07T18:41:35.199Z,1.50
2023-05-07T18:44:22.235Z,1.40
2023-05-07T18:47:09.354Z,1.70
2023-05-07T18:49:56.964Z,1.40
2023-05-07T18:52:43.977Z,1.83
2023-05-07T18:55:31.107Z,1.47
2023-05-07T18:58:18.014Z,1.70
2023-05-07T19:01:05.266Z,1.70
2023-05-07T19:03:52.408Z,1.90
2023-05-07T19:06:39.601Z,1.47
2023-05-07T19:09:26.729Z,1.97
2023-05-07T19:12:15.403Z,1.77
2023-05-07T19:15:02.775Z,1.67
2023-05-07T19:17:50.293Z,1.73
2023-05-07T19:20:37.536Z,1.90
2023-05-07T19:23:24.443Z,1.80
2023-05-07T19:26:11.457Z,1.60
2023-05-07T19:29:12.421Z,1.50
2023-05-07T19:32:04.232Z,1.70
2023-05-07T19:34:51.266Z,1.63
2023-05-07T19:37:38.593Z,1.67
2023-05-07T19:40:26.509Z,1.73
2023-05-07T19:43:13.568Z,1.57
2023-05-07T19:46:01.437Z,1.80
2023-05-07T19:48:48.696Z,1.80
2023-05-07T19:51:35.707Z,1.87
2023-05-07T19:54:23.109Z,1.27
2023-05-07T19:57:10.329Z,1.70
2023-05-07T19:59:57.819Z,1.40
2023-05-07T20:02:45.069Z,1.63
2023-05-07T20:05:32.200Z,1.50
2023-05-07T20:08:19.305Z,1.80
2023-05-07T20:11:06.565Z,1.60
2023-05-07T20:13:53.698Z,1.33
2023-05-07T20:16:41.054Z,1.97
2023-05-07T20:19:28.255Z,1.63
2023-05-07T20:22:15.390Z,1.60
2023-05-07T20:25:02.485Z,1.53
2023-05-07T20:27:49.630Z,1.40
2023-05-07T20:30:37.245Z,1.70
2023-05-07T20:33:24.352Z,1.97
2023-05-07T20:36:11.363Z,1.47
2023-05-07T20:38:58.397Z,1.80
2023-05-07T20:41:45.479Z,1.57
2023-05-07T20:44:32.448Z,1.53
2023-05-07T20:47:19.957Z,1.50
2023-05-07T20:50:14.622Z,1.80
2023-05-07T20:53:02.248Z,1.47
2023-05-07T20:55:49.258Z,1.97
2023-05-07T20:58:38.936Z,1.40
2023-05-07T21:01:26.121Z,1.53
2023-05-07T21:04:13.136Z,1.70
2023-05-07T21:07:00.243Z,1.70
2023-05-07T21:09:47.504Z,1.37
2023-05-07T21:12:34.614Z,1.60
2023-05-07T21:15:21.736Z,1.60
2023-05-07T21:18:08.914Z,1.87
2023-05-07T21:20:56.353Z,1.67
2023-05-07T21:23:43.460Z,1.70
2023-05-07T21:26:31.174Z,1.70
2023-05-07T21:29:18.259Z,1.60
2023-05-07T21:32:05.407Z,1.90
2023-05-07T21:34:52.616Z,1.70
2023-05-07T21:37:39.631Z,2.03
2023-05-07T21:40:27.248Z,1.63
2023-05-07T21:43:14.598Z,1.87
2023-05-07T21:46:01.727Z,1.90
2023-05-07T21:48:48.910Z,1.80
2023-05-07T21:51:36.353Z,2.23
2023-05-07T21:54:23.597Z,1.77
2023-05-07T21:57:10.874Z,1.40
2023-05-07T21:59:57.860Z,1.60
2023-05-07T22:02:44.923Z,1.70
2023-05-07T22:05:32.131Z,1.50
2023-05-07T22:08:19.298Z,1.70
2023-05-07T22:11:06.409Z,1.70
2023-05-07T22:13:53.494Z,2.00
2023-05-07T22:16:40.579Z,1.53
2023-05-07T22:19:27.639Z,1.40
2023-05-07T22:22:14.688Z,1.60
2023-05-07T22:25:01.934Z,1.60
2023-05-07T22:27:48.959Z,1.67
2023-05-07T22:30:36.504Z,1.67
2023-05-07T22:33:23.647Z,2.13
2023-05-07T22:36:10.841Z,1.60
2023-05-07T22:38:58.036Z,1.70
2023-05-07T22:41:45.199Z,1.53
2023-05-07T22:44:32.829Z,1.50
2023-05-07T22:47:19.751Z,1.97
2023-05-07T22:50:06.782Z,2.13
2023-05-07T22:52:54.479Z,1.70
2023-05-07T22:55:41.788Z,1.60
2023-05-07T22:58:24.898Z,1.57
2023-05-07T23:00:51.933Z,1.63
2023-05-07T23:03:19.120Z,1.60
2023-05-07T23:05:46.286Z,1.53
2023-05-07T23:08:13.533Z,1.67
2023-05-07T23:10:40.899Z,1.60
2023-05-07T23:13:13.477Z,1.60
2023-05-07T23:15:41.121Z,1.47
2023-05-07T23:18:08.276Z,1.60
2023-05-07T23:20:35.779Z,1.87
2023-05-07T23:23:03.406Z,1.50
2023-05-07T23:25:30.605Z,1.40
2023-05-07T23:27:57.641Z,1.73
2023-05-07T23:30:25.066Z,1.70
2023-05-07T23:32:52.194Z,1.67
2023-05-07T23:35:19.257Z,1.70
2023-05-07T23:37:46.445Z,1.77
2023-05-07T23:40:13.846Z,1.40
2023-05-07T23:42:41.071Z,1.90
2023-05-07T23:45:08.778Z,1.87
2023-05-07T23:47:36.000Z,1.50
2023-05-07T23:50:03.318Z,1.63
2023-05-07T23:52:30.426Z,1.77
2023-05-07T23:54:57.582Z,1.70
2023-05-07T23:57:24.931Z,1.60
2023-05-07T23:59:52.247Z,1.67
